Time;durP1;ratioP1;P1;durP2;ratioP2;P2;SDS_P1;SDS_P2;PMS_P1;PMS_P2;Temp;Humidity;BMP_temperature;BMP_pressure;BME280_temperature;BME280_humidity;BME280_pressure;Samples;Min_cycle;Max_cycle;Signal;HPM_P1;HPM_P2
2023/10/08 00:02:52;;;;;;;6.60;3.72;;;17.50;99.90;;;;;;7301708;32;20107;-56
2023/10/08 00:06:54;;;;;;;8.05;3.00;;;17.50;99.90;;;;;;7304686;32;20219;-55
2023/10/08 00:10:56;;;;;;;7.87;3.35;;;17.50;99.90;;;;;;7299517;32;20917;-56
2023/10/08 00:14:59;;;;;;;8.18;3.22;;;17.50;99.90;;;;;;7303750;32;20133;-55
2023/10/08 00:19:08;;;;;;;13.60;3.47;;;17.50;99.90;;;;;;7303066;32;20135;-56
2023/10/08 00:23:10;;;;;;;9.35;3.50;;;17.50;99.90;;;;;;7300218;32;20100;-56
2023/10/08 00:27:14;;;;;;;7.47;3.15;;;17.40;99.90;;;;;;7303683;32;20111;-56
2023/10/08 00:31:17;;;;;;;7.57;3.05;;;17.40;99.90;;;;;;7300385;32;20199;-55
2023/10/08 00:35:20;;;;;;;6.97;3.45;;;17.40;99.90;;;;;;7300035;32;20504;-55
2023/10/08 00:39:34;;;;;;;8.50;3.60;;;17.40;99.90;;;;;;7300322;32;20111;-57
2023/10/08 00:43:35;;;;;;;6.50;3.22;;;17.40;99.90;;;;;;7296567;32;20131;-56
2023/10/08 00:47:43;;;;;;;4.57;2.72;;;17.30;99.90;;;;;;7295582;32;20126;-56
2023/10/08 00:51:59;;;;;;;8.35;3.50;;;17.30;99.90;;;;;;7303027;32;20507;-56
2023/10/08 00:56:06;;;;;;;8.20;3.42;;;17.30;99.90;;;;;;7304272;32;20124;-55
2023/10/08 01:00:17;;;;;;;7.37;3.05;;;17.30;99.90;;;;;;7300391;32;20120;-57
2023/10/08 01:04:26;;;;;;;9.32;3.55;;;17.40;99.90;;;;;;7296059;32;20112;-56
2023/10/08 01:08:38;;;;;;;8.88;3.47;;;17.30;99.90;;;;;;7303585;32;20188;-55
2023/10/08 01:13:03;;;;;;;9.80;3.75;;;17.20;99.90;;;;;;7300898;32;20270;-56
2023/10/08 01:17:06;;;;;;;7.85;3.75;;;17.20;99.90;;;;;;7299026;32;20289;-56
2023/10/08 01:21:12;;;;;;;11.00;3.45;;;17.00;99.90;;;;;;7300191;32;20126;-56
2023/10/08 01:25:21;;;;;;;11.73;3.60;;;17.00;99.90;;;;;;7303641;32;20120;-56
2023/10/08 01:29:25;;;;;;;8.25;3.72;;;16.90;99.90;;;;;;7301055;32;20568;-56
2023/10/08 01:33:30;;;;;;;7.43;3.53;;;16.80;99.90;;;;;;7301272;32;20211;-56
2023/10/08 01:37:33;;;;;;;6.93;3.35;;;16.70;99.90;;;;;;7295913;32;20116;-56
2023/10/08 01:41:40;;;;;;;7.22;3.15;;;16.70;99.90;;;;;;7297016;32;20642;-56
2023/10/08 01:45:43;;;;;;;7.35;3.70;;;16.60;99.90;;;;;;7301827;32;20157;-56
2023/10/08 01:49:46;;;;;;;10.55;3.62;;;16.50;99.90;;;;;;7302679;32;20116;-56
2023/10/08 01:53:48;;;;;;;5.30;2.97;;;16.50;99.90;;;;;;7301008;32;20108;-55
2023/10/08 01:57:53;;;;;;;9.45;3.65;;;16.40;99.90;;;;;;7298706;32;20281;-57
2023/10/08 02:01:57;;;;;;;7.35;3.40;;;16.30;99.90;;;;;;7297833;32;20108;-56
2023/10/08 02:05:59;;;;;;;9.88;3.60;;;16.20;99.90;;;;;;7295967;32;20104;-56
2023/10/08 02:10:01;;;;;;;6.50;3.03;;;16.20;99.90;;;;;;7298521;32;20099;-57
2023/10/08 02:14:04;;;;;;;9.68;3.53;;;16.10;99.90;;;;;;7299151;32;20131;-57
2023/10/08 02:18:06;;;;;;;7.25;3.65;;;16.00;99.90;;;;;;7292807;32;20341;-57
2023/10/08 02:22:11;;;;;;;6.78;3.58;;;16.10;99.90;;;;;;7295726;32;20096;-57
2023/10/08 02:26:14;;;;;;;10.85;4.47;;;16.00;99.90;;;;;;7299139;32;22116;-55
2023/10/08 02:30:17;;;;;;;7.57;3.62;;;16.00;99.90;;;;;;7295790;32;20186;-56
2023/10/08 02:34:19;;;;;;;8.15;3.58;;;16.10;99.90;;;;;;7294870;32;20182;-56
2023/10/08 02:38:24;;;;;;;8.98;4.10;;;16.20;99.90;;;;;;7299170;32;20139;-57
2023/10/08 02:42:26;;;;;;;10.52;3.65;;;16.10;99.90;;;;;;7298148;32;20183;-55
2023/10/08 02:46:29;;;;;;;9.77;3.85;;;16.00;99.90;;;;;;7298332;32;20191;-56
2023/10/08 02:50:32;;;;;;;9.02;3.67;;;15.90;99.90;;;;;;7297607;32;20577;-56
2023/10/08 02:54:37;;;;;;;7.78;3.42;;;16.00;99.90;;;;;;7295195;32;20128;-56
2023/10/08 02:58:40;;;;;;;7.78;3.65;;;16.00;99.90;;;;;;7289851;32;20295;-55
2023/10/08 03:02:41;;;;;;;9.80;3.80;;;16.00;99.90;;;;;;7293429;32;20135;-56
2023/10/08 03:06:49;;;;;;;8.43;3.87;;;16.00;99.90;;;;;;7294553;32;20127;-56
2023/10/08 03:10:55;;;;;;;9.18;3.60;;;16.00;99.90;;;;;;7298705;32;22023;-56
2023/10/08 03:15:12;;;;;;;9.25;4.05;;;16.00;99.90;;;;;;7293991;32;20153;-56
2023/10/08 03:19:15;;;;;;;6.57;3.45;;;16.00;99.90;;;;;;7298431;32;20096;-55
2023/10/08 03:23:23;;;;;;;9.48;4.18;;;15.90;99.90;;;;;;7297937;32;20228;-55
2023/10/08 03:27:26;;;;;;;9.63;3.65;;;16.00;99.90;;;;;;7293381;32;20115;-56
2023/10/08 03:35:59;;;;;;;7.93;3.53;;;15.70;99.90;;;;;;7299384;32;20226;-56
2023/10/08 03:40:25;;;;;;;9.30;3.47;;;15.70;99.90;;;;;;7303509;32;20717;-56
2023/10/08 03:44:29;;;;;;;5.45;3.10;;;15.80;99.90;;;;;;7300829;32;20274;-55
2023/10/08 03:48:36;;;;;;;9.05;4.10;;;15.70;99.90;;;;;;7300533;32;20158;-56
2023/10/08 03:52:38;;;;;;;5.25;3.20;;;15.60;99.90;;;;;;7298748;32;20108;-57
2023/10/08 03:56:45;;;;;;;6.95;3.47;;;15.60;99.90;;;;;;7304865;32;20157;-56
2023/10/08 04:00:47;;;;;;;8.02;3.42;;;15.70;99.90;;;;;;7301459;32;20207;-56
2023/10/08 04:04:49;;;;;;;10.30;4.20;;;15.70;99.90;;;;;;7303437;32;20182;-60
2023/10/08 04:13:11;;;;;;;8.35;3.37;;;15.70;99.90;;;;;;7302404;32;20513;-56
2023/10/08 04:17:22;;;;;;;6.40;3.35;;;15.60;99.90;;;;;;7302508;32;20099;-56
2023/10/08 04:21:27;;;;;;;8.93;3.70;;;15.60;99.90;;;;;;7296428;32;20174;-57
2023/10/08 04:25:30;;;;;;;10.52;3.37;;;15.60;99.90;;;;;;7302673;32;20103;-56
2023/10/08 04:29:32;;;;;;;10.30;3.92;;;15.60;99.90;;;;;;7304376;32;20134;-56
2023/10/08 04:33:34;;;;;;;9.88;3.65;;;15.60;99.90;;;;;;7303588;32;20100;-55
2023/10/08 04:37:40;;;;;;;5.90;3.33;;;15.60;99.90;;;;;;7298736;32;20246;-56
2023/10/08 04:41:45;;;;;;;9.07;3.45;;;15.50;99.90;;;;;;7304781;32;20169;-56
2023/10/08 04:45:47;;;;;;;7.05;3.25;;;15.50;99.90;;;;;;7293289;32;20647;-56
2023/10/08 04:49:53;;;;;;;7.20;3.80;;;15.50;99.90;;;;;;7297801;32;20292;-56
2023/10/08 04:53:55;;;;;;;6.05;3.62;;;15.50;99.90;;;;;;7305326;32;20177;-55
2023/10/08 04:57:58;;;;;;;8.25;3.60;;;15.50;99.90;;;;;;7302108;32;20191;-56
2023/10/08 05:02:19;;;;;;;11.25;3.62;;;15.40;99.90;;;;;;7300848;32;20123;-56
2023/10/08 05:11:00;;;;;;;9.77;3.78;;;15.30;99.90;;;;;;7298852;32;20576;-56
2023/10/08 05:19:37;;;;;;;9.45;3.50;;;15.30;99.90;;;;;;7297774;32;20125;-56
2023/10/08 05:24:08;;;;;;;11.15;4.55;;;15.30;99.90;;;;;;7293602;32;20533;-56
2023/10/08 05:28:11;;;;;;;10.05;4.12;;;15.30;99.90;;;;;;7297674;32;20676;-56
2023/10/08 05:37:37;;;;;;;9.00;4.30;;;15.20;99.90;;;;;;7300395;32;20474;-56
2023/10/08 05:53:29;;;;;;;9.30;3.42;;;15.30;99.90;;;;;;7298360;32;20545;-56
2023/10/08 05:57:46;;;;;;;9.23;4.37;;;15.20;99.90;;;;;;7300407;32;20170;-56
2023/10/08 06:01:57;;;;;;;7.10;3.80;;;15.30;99.90;;;;;;7292119;32;20202;-56
2023/10/08 06:11:07;;;;;;;9.45;3.72;;;15.20;99.90;;;;;;7294051;32;20104;-56
2023/10/08 06:19:03;;;;;;;12.63;4.20;;;15.00;99.90;;;;;;7291561;32;20241;-56
2023/10/08 06:23:07;;;;;;;8.25;3.65;;;15.10;99.90;;;;;;7296070;32;20135;-56
2023/10/08 06:27:09;;;;;;;9.07;4.10;;;15.20;99.90;;;;;;7296113;32;20103;-56
2023/10/08 06:31:11;;;;;;;9.57;3.92;;;15.20;99.90;;;;;;7296628;32;20103;-56
2023/10/08 06:35:17;;;;;;;9.05;3.62;;;15.20;99.90;;;;;;7292735;32;20111;-56
2023/10/08 06:39:33;;;;;;;8.63;3.47;;;15.20;99.90;;;;;;7294608;32;20578;-57
2023/10/08 06:43:38;;;;;;;9.50;4.45;;;15.30;99.90;;;;;;7292704;32;20183;-57
2023/10/08 06:47:40;;;;;;;10.30;3.50;;;15.40;99.90;;;;;;7297088;32;20179;-58
2023/10/08 06:51:45;;;;;;;8.30;4.00;;;15.40;99.90;;;;;;7297672;32;20119;-57
2023/10/08 06:55:56;;;;;;;8.85;4.03;;;15.40;99.90;;;;;;7297267;32;20384;-57
2023/10/08 06:59:59;;;;;;;8.77;4.32;;;15.40;99.90;;;;;;7291627;32;20131;-57
2023/10/08 07:04:06;;;;;;;8.40;4.28;;;15.50;99.90;;;;;;7294447;32;20199;-57
2023/10/08 07:08:08;;;;;;;10.05;3.50;;;15.40;99.90;;;;;;7293720;32;20225;-57
2023/10/08 07:12:14;;;;;;;9.85;4.55;;;15.40;99.90;;;;;;7296975;32;20123;-58
2023/10/08 07:16:17;;;;;;;8.50;3.95;;;15.40;99.90;;;;;;7298187;32;20616;-56
2023/10/08 07:20:22;;;;;;;9.45;4.12;;;15.40;99.90;;;;;;7306296;32;20130;-56
2023/10/08 07:24:23;;;;;;;8.15;4.00;;;15.50;99.90;;;;;;7305523;32;20115;-57
2023/10/08 07:28:26;;;;;;;11.80;4.30;;;15.50;99.90;;;;;;7306596;32;20358;-57
2023/10/08 07:32:30;;;;;;;8.77;4.20;;;15.50;99.90;;;;;;7307381;32;20124;-57
2023/10/08 07:36:34;;;;;;;10.30;4.20;;;15.50;99.90;;;;;;7300637;32;20128;-57
2023/10/08 07:40:37;;;;;;;9.93;3.85;;;15.50;99.90;;;;;;7298715;32;20220;-56
2023/10/08 07:44:39;;;;;;;12.82;4.55;;;15.50;99.90;;;;;;7301963;32;20483;-56
2023/10/08 07:48:44;;;;;;;7.60;4.07;;;15.50;99.90;;;;;;7306591;32;21160;-57
2023/10/08 07:52:46;;;;;;;9.57;3.85;;;15.60;99.90;;;;;;7304386;32;20225;-57
2023/10/08 07:56:48;;;;;;;8.25;4.43;;;15.80;99.90;;;;;;7303392;32;20360;-56
2023/10/08 08:00:53;;;;;;;10.57;4.82;;;15.90;99.90;;;;;;7305127;32;20525;-56
2023/10/08 08:04:56;;;;;;;10.35;4.62;;;15.80;99.90;;;;;;7302847;32;20100;-57
2023/10/08 08:08:58;;;;;;;13.15;4.37;;;15.70;99.90;;;;;;7305907;32;20706;-56
2023/10/08 08:13:00;;;;;;;11.00;4.57;;;15.80;99.90;;;;;;7301785;32;20478;-57
2023/10/08 08:17:13;;;;;;;10.98;4.80;;;16.10;99.90;;;;;;7303551;32;20324;-59
2023/10/08 08:21:16;;;;;;;8.02;4.30;;;16.30;99.90;;;;;;7302913;32;20206;-60
2023/10/08 08:25:33;;;;;;;9.52;4.60;;;16.50;99.90;;;;;;7299115;32;20211;-57
2023/10/08 08:29:45;;;;;;;10.35;4.97;;;16.80;99.90;;;;;;7302162;32;20126;-56
2023/10/08 08:33:52;;;;;;;12.55;4.37;;;16.60;99.90;;;;;;7299017;32;20161;-58
2023/10/08 08:37:54;;;;;;;10.90;4.82;;;16.80;99.90;;;;;;7303152;32;20120;-56
2023/10/08 08:42:01;;;;;;;10.40;5.28;;;16.70;99.90;;;;;;7293708;32;20183;-56
2023/10/08 08:46:07;;;;;;;21.10;5.85;;;16.80;99.90;;;;;;7297224;32;20126;-57
2023/10/08 08:50:10;;;;;;;24.90;7.77;;;16.70;99.90;;;;;;7297514;32;20130;-58
2023/10/08 08:54:14;;;;;;;28.27;8.13;;;16.80;99.90;;;;;;7296795;32;20473;-60
2023/10/08 08:58:17;;;;;;;24.45;8.90;;;16.80;99.90;;;;;;7294310;32;20100;-60
2023/10/08 09:02:19;;;;;;;20.37;8.00;;;16.80;99.90;;;;;;7294808;32;20156;-59
2023/10/08 09:06:21;;;;;;;21.17;8.60;;;16.80;99.90;;;;;;7298047;32;20201;-60
2023/10/08 09:10:28;;;;;;;21.33;8.05;;;16.90;99.90;;;;;;7298037;32;20215;-57
2023/10/08 09:14:31;;;;;;;;;;;17.00;99.90;;;;;;7295882;32;20244;-57
2023/10/08 09:18:34;;;;;;;21.77;8.32;;;17.00;99.90;;;;;;7296432;32;20386;-57
2023/10/08 09:22:36;;;;;;;25.37;9.40;;;17.20;99.90;;;;;;7298464;32;20122;-57
2023/10/08 09:26:39;;;;;;;22.37;9.80;;;17.00;99.90;;;;;;7292949;32;21210;-57
2023/10/08 09:30:44;;;;;;;26.77;10.70;;;17.00;99.90;;;;;;7299235;32;20620;-57
2023/10/08 09:34:47;;;;;;;24.02;9.57;;;17.00;99.90;;;;;;7294500;32;20662;-56
2023/10/08 09:38:52;;;;;;;36.85;11.52;;;17.10;99.90;;;;;;7297813;32;20465;-57
2023/10/08 09:42:54;;;;;;;28.58;10.45;;;16.90;99.90;;;;;;7290123;32;20530;-57
2023/10/08 09:47:04;;;;;;;37.70;15.38;;;17.00;99.90;;;;;;7294537;32;20112;-57
2023/10/08 09:51:10;;;;;;;31.98;10.98;;;17.00;99.90;;;;;;7298862;32;20206;-58
2023/10/08 09:55:14;;;;;;;32.50;11.90;;;17.10;99.90;;;;;;7298528;32;20182;-58
2023/10/08 09:59:16;;;;;;;36.85;14.13;;;17.20;99.90;;;;;;7297106;32;20246;-58
2023/10/08 10:03:18;;;;;;;40.53;14.95;;;17.40;99.90;;;;;;7296926;32;20195;-60
2023/10/08 10:07:22;;;;;;;33.80;14.48;;;17.20;99.90;;;;;;7296765;32;20208;-59
2023/10/08 10:11:28;;;;;;;44.40;19.23;;;17.30;99.90;;;;;;7297827;32;20122;-59
2023/10/08 10:15:36;;;;;;;39.63;20.33;;;16.90;99.90;;;;;;7281324;32;20096;-58
2023/10/08 10:19:38;;;;;;;;;;;16.80;99.90;;;;;;7300057;32;20195;-58
2023/10/08 10:23:42;;;;;;;32.50;16.25;;;16.80;99.90;;;;;;7298199;32;20027;-58
2023/10/08 10:27:51;;;;;;;32.10;16.60;;;17.00;99.90;;;;;;7293990;32;20109;-58
2023/10/08 10:31:54;;;;;;;40.55;19.05;;;17.20;99.90;;;;;;7297771;32;20191;-56
2023/10/08 10:35:56;;;;;;;33.05;20.23;;;17.20;99.90;;;;;;7291969;32;20280;-56
2023/10/08 10:40:01;;;;;;;43.00;22.27;;;17.50;99.90;;;;;;7293455;32;20194;-56
2023/10/08 10:44:08;;;;;;;36.88;20.75;;;17.40;99.90;;;;;;7297084;32;20178;-58
2023/10/08 10:56:44;;;;;;;26.42;17.33;;;17.30;99.90;;;;;;7294739;32;20801;-58
2023/10/08 11:00:47;;;;;;;27.10;16.70;;;17.10;99.90;;;;;;7291311;32;20255;-58
2023/10/08 11:04:49;;;;;;;29.73;13.65;;;17.10;99.90;;;;;;7297943;32;20123;-57
2023/10/08 11:08:52;;;;;;;22.92;11.15;;;17.20;99.90;;;;;;7296919;32;20957;-57
2023/10/08 11:12:58;;;;;;;19.67;10.82;;;17.20;99.90;;;;;;7295903;32;20093;-57
2023/10/08 11:17:25;;;;;;;19.08;9.57;;;17.00;99.90;;;;;;7297042;32;20122;-58
2023/10/08 11:21:31;;;;;;;23.85;10.27;;;17.00;99.90;;;;;;7297317;32;20236;-57
2023/10/08 11:25:35;;;;;;;19.93;10.33;;;16.80;99.90;;;;;;7297046;32;20182;-58
2023/10/08 11:29:38;;;;;;;22.87;10.88;;;16.50;99.90;;;;;;7295070;32;20684;-57
2023/10/08 11:33:41;;;;;;;17.48;9.02;;;16.60;99.90;;;;;;7294896;32;20131;-57
2023/10/08 11:37:50;;;;;;;17.67;8.35;;;16.60;99.90;;;;;;7295993;32;21143;-58
2023/10/08 11:42:03;;;;;;;15.80;7.80;;;16.70;99.90;;;;;;7295208;32;20135;-57
2023/10/08 11:46:06;;;;;;;14.75;6.97;;;16.60;99.90;;;;;;7293554;32;20134;-58
2023/10/08 11:50:16;;;;;;;14.48;6.68;;;16.60;99.90;;;;;;7295581;32;20128;-56
2023/10/08 11:54:20;;;;;;;18.00;6.50;;;16.50;99.90;;;;;;7296995;32;20161;-56
2023/10/08 11:58:35;;;;;;;13.88;5.93;;;16.80;99.90;;;;;;7299704;32;20211;-58
2023/10/08 12:02:38;;;;;;;15.45;6.18;;;16.80;99.90;;;;;;7299772;32;20680;-57
2023/10/08 12:06:46;;;;;;;10.80;4.82;;;17.00;99.90;;;;;;7300941;32;20298;-57
2023/10/08 12:10:53;;;;;;;14.00;5.95;;;17.00;99.90;;;;;;7301344;32;20836;-58
2023/10/08 12:14:56;;;;;;;13.98;6.85;;;16.90;99.90;;;;;;7295602;32;20175;-59
2023/10/08 12:19:00;;;;;;;13.60;5.93;;;17.20;99.90;;;;;;7303925;32;20593;-59
2023/10/08 12:23:04;;;;;;;13.70;7.55;;;17.30;99.90;;;;;;7301276;32;20186;-59
2023/10/08 12:27:06;;;;;;;17.20;8.68;;;17.40;99.90;;;;;;7297428;32;20761;-60
2023/10/08 12:31:10;;;;;;;19.55;11.38;;;17.50;99.90;;;;;;7300980;32;20442;-60
2023/10/08 12:35:15;;;;;;;18.58;10.55;;;17.00;99.90;;;;;;7296450;32;20305;-60
2023/10/08 12:39:16;;;;;;;19.83;11.73;;;17.00;99.90;;;;;;7294527;32;20095;-59
2023/10/08 12:43:27;;;;;;;29.23;11.43;;;16.80;99.90;;;;;;7296364;32;20287;-59
2023/10/08 12:47:29;;;;;;;23.20;12.27;;;17.00;99.90;;;;;;7298400;32;20646;-56
2023/10/08 12:51:35;;;;;;;23.98;11.93;;;17.00;99.90;;;;;;7301947;32;20899;-57
2023/10/08 12:55:40;;;;;;;27.62;13.02;;;17.10;99.90;;;;;;7298835;32;20161;-57
2023/10/08 12:59:45;;;;;;;20.25;11.38;;;17.10;99.90;;;;;;7302604;32;20156;-57
2023/10/08 13:03:47;;;;;;;23.40;11.57;;;17.10;99.90;;;;;;7299150;32;20175;-57
2023/10/08 13:07:49;;;;;;;26.12;10.93;;;17.20;99.90;;;;;;7302870;32;20213;-57
2023/10/08 13:11:51;;;;;;;20.35;11.93;;;17.20;99.90;;;;;;7296912;32;20201;-57
2023/10/08 13:15:57;;;;;;;15.73;10.77;;;17.20;99.90;;;;;;7291928;32;20798;-57
2023/10/08 13:19:59;;;;;;;21.77;11.70;;;17.30;99.90;;;;;;7288024;32;20274;-57
2023/10/08 13:24:02;;;;;;;27.08;12.57;;;17.20;99.90;;;;;;7294138;32;20123;-57
2023/10/08 13:28:04;;;;;;;21.92;11.02;;;17.20;99.90;;;;;;7298176;32;20096;-57
2023/10/08 13:32:06;;;;;;;15.75;9.00;;;17.20;99.90;;;;;;7299187;32;20635;-57
2023/10/08 13:36:09;;;;;;;17.83;8.68;;;17.20;99.90;;;;;;7296555;32;20516;-57
2023/10/08 13:40:19;;;;;;;16.20;9.02;;;17.30;99.90;;;;;;7292648;32;20335;-56
2023/10/08 13:44:28;;;;;;;13.90;8.35;;;17.20;99.90;;;;;;7297072;32;20251;-56
2023/10/08 13:48:32;;;;;;;13.18;8.13;;;17.40;99.90;;;;;;7293416;32;20248;-58
2023/10/08 13:52:38;;;;;;;17.35;9.02;;;17.50;99.90;;;;;;7297686;32;20290;-57
2023/10/08 13:56:47;;;;;;;15.90;10.15;;;17.00;99.90;;;;;;7297666;32;20122;-57
2023/10/08 14:00:52;;;;;;;16.62;8.63;;;17.00;99.90;;;;;;7296576;32;20237;-56
2023/10/08 14:04:54;;;;;;;17.33;8.43;;;17.00;99.90;;;;;;7291270;32;20153;-57
2023/10/08 14:08:56;;;;;;;13.30;7.93;;;17.10;99.90;;;;;;7294903;32;20122;-58
2023/10/08 14:13:01;;;;;;;17.85;9.32;;;17.20;99.90;;;;;;7295720;32;21396;-58
2023/10/08 14:17:05;;;;;;;15.63;9.23;;;17.10;99.90;;;;;;7295028;32;20104;-57
2023/10/08 14:21:11;;;;;;;20.62;8.30;;;17.20;99.90;;;;;;7295353;32;20256;-56
2023/10/08 14:25:14;;;;;;;26.50;12.80;;;17.40;99.90;;;;;;7297668;32;20099;-57
2023/10/08 14:29:17;;;;;;;17.73;9.95;;;17.40;99.90;;;;;;7297413;32;20092;-57
2023/10/08 14:33:26;;;;;;;16.65;8.80;;;17.60;99.90;;;;;;7298904;32;20561;-57
2023/10/08 14:46:11;;;;;;;15.88;8.20;;;17.90;99.90;;;;;;7294267;32;20122;-57
2023/10/08 14:50:16;;;;;;;16.70;7.40;;;17.70;99.90;;;;;;7295625;32;20270;-57
2023/10/08 14:54:18;;;;;;;14.70;7.55;;;17.80;99.90;;;;;;7293442;32;20107;-57
2023/10/08 14:58:19;;;;;;;12.63;7.32;;;18.00;99.90;;;;;;7294473;32;20198;-57
2023/10/08 15:02:22;;;;;;;20.23;8.85;;;18.10;99.90;;;;;;7295785;32;20625;-56
2023/10/08 15:06:39;;;;;;;20.42;8.52;;;18.00;99.90;;;;;;7292502;32;20183;-56
2023/10/08 15:10:41;;;;;;;12.75;7.12;;;18.10;99.90;;;;;;7295614;32;20277;-57
2023/10/08 15:14:43;;;;;;;12.88;7.28;;;18.30;99.90;;;;;;7292334;32;20108;-57
2023/10/08 15:18:44;;;;;;;12.68;7.20;;;18.40;99.90;;;;;;7292962;32;20131;-58
2023/10/08 15:22:48;;;;;;;13.15;7.37;;;18.40;99.90;;;;;;7294745;32;20216;-59
2023/10/08 15:26:52;;;;;;;13.23;7.00;;;18.20;99.90;;;;;;7291384;32;20226;-56
2023/10/08 15:30:54;;;;;;;10.75;7.28;;;18.10;99.90;;;;;;7294123;32;20119;-58
2023/10/08 15:34:55;;;;;;;11.52;6.57;;;18.00;99.90;;;;;;7293847;32;20328;-57
2023/10/08 15:38:58;;;;;;;11.93;6.45;;;17.90;99.90;;;;;;7302148;32;20191;-58
2023/10/08 15:43:00;;;;;;;10.07;6.45;;;17.70;99.90;;;;;;7301541;32;20168;-57
2023/10/08 15:47:02;;;;;;;13.30;6.43;;;17.60;99.90;;;;;;7304234;32;20683;-58
2023/10/08 15:51:03;;;;;;;12.80;6.70;;;17.50;99.90;;;;;;7303572;32;20439;-58
2023/10/08 15:55:07;;;;;;;15.35;7.15;;;17.50;99.90;;;;;;7303891;32;20581;-58
2023/10/08 15:59:10;;;;;;;12.90;6.93;;;17.50;99.90;;;;;;7295839;32;20096;-58
2023/10/08 16:03:12;;;;;;;12.27;6.78;;;17.30;99.90;;;;;;7306381;32;20181;-58
2023/10/08 16:07:15;;;;;;;11.20;6.57;;;17.20;99.90;;;;;;7300555;32;20215;-56
2023/10/08 16:11:16;;;;;;;12.63;7.10;;;17.00;99.90;;;;;;7295380;32;20308;-56
2023/10/08 16:15:20;;;;;;;13.98;6.32;;;17.00;99.90;;;;;;7301988;32;20206;-56
2023/10/08 16:19:22;;;;;;;14.32;6.57;;;17.00;99.90;;;;;;7296050;32;20225;-56
2023/10/08 16:23:29;;;;;;;13.62;6.90;;;16.90;99.90;;;;;;7294460;32;20183;-56
2023/10/08 16:27:30;;;;;;;17.80;7.78;;;16.80;99.90;;;;;;7300279;32;20137;-56
2023/10/08 16:31:39;;;;;;;22.65;7.60;;;16.70;99.90;;;;;;7300233;32;20127;-56
2023/10/08 16:35:40;;;;;;;14.02;7.37;;;16.40;99.90;;;;;;7301290;32;20289;-57
2023/10/08 16:39:42;;;;;;;14.20;7.35;;;16.30;99.90;;;;;;7299466;32;20183;-57
2023/10/08 16:43:44;;;;;;;13.00;7.50;;;16.30;99.90;;;;;;7299078;32;20183;-57
2023/10/08 16:47:57;;;;;;;14.43;7.78;;;16.10;99.90;;;;;;7295673;32;20841;-59
2023/10/08 16:51:59;;;;;;;15.77;8.60;;;16.00;99.90;;;;;;7294652;32;20122;-57
2023/10/08 16:56:01;;;;;;;18.00;7.95;;;15.90;99.90;;;;;;7300347;32;20133;-57
2023/10/08 17:00:10;;;;;;;13.60;8.57;;;15.90;99.90;;;;;;7298986;32;20246;-58
2023/10/08 17:04:13;;;;;;;12.30;7.75;;;15.70;99.90;;;;;;7289398;32;20095;-57
2023/10/08 17:08:17;;;;;;;15.63;8.32;;;15.70;99.90;;;;;;7296219;32;20532;-57
2023/10/08 17:12:19;;;;;;;18.80;9.93;;;15.60;99.90;;;;;;7297155;32;20525;-56
2023/10/08 17:16:22;;;;;;;15.02;8.75;;;15.50;99.90;;;;;;7296606;32;20156;-58
2023/10/08 17:20:24;;;;;;;19.17;9.27;;;15.30;99.90;;;;;;7298756;32;20502;-57
2023/10/08 17:24:26;;;;;;;13.80;8.18;;;15.20;99.90;;;;;;7300934;32;20467;-57
2023/10/08 17:28:28;;;;;;;15.98;7.97;;;15.20;99.90;;;;;;7299724;32;20132;-56
2023/10/08 17:32:30;;;;;;;12.77;7.78;;;15.10;99.90;;;;;;7297232;32;20118;-57
2023/10/08 17:36:33;;;;;;;18.67;8.70;;;15.00;99.90;;;;;;7298145;32;20131;-58
2023/10/08 17:40:37;;;;;;;13.10;7.20;;;15.00;99.90;;;;;;7303355;32;20210;-55
2023/10/08 17:44:39;;;;;;;15.20;7.78;;;14.90;99.90;;;;;;7296465;32;20342;-59
2023/10/08 17:48:41;;;;;;;13.23;8.07;;;14.90;99.90;;;;;;7293732;32;20206;-55
2023/10/08 17:52:45;;;;;;;15.02;7.90;;;14.80;99.90;;;;;;7300404;32;20119;-57
2023/10/08 17:56:47;;;;;;;13.60;8.07;;;14.70;99.90;;;;;;7296266;32;20309;-57
2023/10/08 18:00:49;;;;;;;15.70;8.38;;;14.70;99.90;;;;;;7299663;32;20495;-57
2023/10/08 18:04:51;;;;;;;15.68;8.30;;;14.60;99.90;;;;;;7299160;32;20309;-57
2023/10/08 18:08:54;;;;;;;14.25;7.80;;;14.60;99.90;;;;;;7295201;32;20517;-58
2023/10/08 18:12:56;;;;;;;12.57;8.23;;;14.50;99.90;;;;;;7299691;32;20100;-58
2023/10/08 18:16:59;;;;;;;12.55;7.45;;;14.40;99.90;;;;;;7299068;32;20129;-58
2023/10/08 18:21:00;;;;;;;12.60;7.85;;;14.40;99.90;;;;;;7294323;32;20257;-58
2023/10/08 18:25:02;;;;;;;17.00;8.48;;;14.30;99.90;;;;;;7290175;32;20229;-59
2023/10/08 18:29:05;;;;;;;13.75;8.18;;;14.20;99.90;;;;;;7286891;32;20178;-57
2023/10/08 18:33:08;;;;;;;15.02;7.95;;;14.10;99.90;;;;;;7291148;32;20111;-58
2023/10/08 18:37:10;;;;;;;15.18;9.13;;;14.10;99.90;;;;;;7301154;32;20300;-57
2023/10/08 18:41:14;;;;;;;16.80;9.45;;;14.00;99.90;;;;;;7298168;32;20226;-59
2023/10/08 18:45:18;;;;;;;14.02;8.85;;;13.90;99.90;;;;;;7297841;32;20108;-56
2023/10/08 18:49:19;;;;;;;15.60;9.27;;;13.80;99.90;;;;;;7299132;32;20510;-57
2023/10/08 18:53:23;;;;;;;16.77;9.20;;;13.80;99.90;;;;;;7295982;32;20607;-58
2023/10/08 18:57:25;;;;;;;15.27;9.73;;;13.80;99.90;;;;;;7298839;32;20248;-58
2023/10/08 19:01:28;;;;;;;18.73;10.70;;;13.60;99.90;;;;;;7294282;32;20123;-57
2023/10/08 19:05:30;;;;;;;18.05;9.75;;;13.60;99.90;;;;;;7295558;32;20146;-58
2023/10/08 19:09:32;;;;;;;19.70;9.85;;;13.50;99.90;;;;;;7298570;32;20190;-59
2023/10/08 19:13:35;;;;;;;17.58;8.88;;;13.40;99.90;;;;;;7300697;32;20122;-58
2023/10/08 19:17:37;;;;;;;14.85;9.85;;;13.40;99.90;;;;;;7298455;32;20122;-57
2023/10/08 19:21:40;;;;;;;16.95;9.10;;;13.40;99.90;;;;;;7294703;32;20167;-57
2023/10/08 19:25:50;;;;;;;17.33;8.50;;;13.40;99.90;;;;;;7299384;32;20107;-57
2023/10/08 19:29:52;;;;;;;15.45;8.88;;;13.30;99.90;;;;;;7296546;32;20278;-59
2023/10/08 19:33:54;;;;;;;16.08;8.95;;;13.40;99.90;;;;;;7294483;32;20249;-57
2023/10/08 19:37:57;;;;;;;17.90;9.00;;;13.30;99.90;;;;;;7298668;32;20157;-57
2023/10/08 19:41:59;;;;;;;12.73;7.85;;;13.20;99.90;;;;;;7293422;32;20230;-57
2023/10/08 19:46:01;;;;;;;13.88;8.50;;;13.10;99.90;;;;;;7297071;32;20206;-58
2023/10/08 19:50:05;;;;;;;15.43;8.93;;;13.10;99.90;;;;;;7296137;32;20108;-59
2023/10/08 19:54:08;;;;;;;12.82;7.80;;;13.00;99.90;;;;;;7294951;32;20100;-56
2023/10/08 19:58:13;;;;;;;18.23;8.25;;;13.00;99.90;;;;;;7294267;32;20276;-58
2023/10/08 20:02:15;;;;;;;17.20;8.60;;;12.90;99.90;;;;;;7295434;32;20560;-57
2023/10/08 20:06:17;;;;;;;12.50;7.87;;;12.90;99.90;;;;;;7297708;32;20557;-58
2023/10/08 20:10:21;;;;;;;11.20;7.22;;;12.80;99.90;;;;;;7297118;32;20636;-58
2023/10/08 20:14:23;;;;;;;14.43;7.70;;;12.70;99.90;;;;;;7300304;32;20192;-57
2023/10/08 20:18:26;;;;;;;20.58;9.00;;;12.60;99.90;;;;;;7298127;32;20123;-59
2023/10/08 20:22:29;;;;;;;19.75;8.85;;;12.60;99.90;;;;;;7301272;32;20604;-58
2023/10/08 20:26:32;;;;;;;22.62;11.60;;;12.70;99.90;;;;;;7295027;32;20123;-58
2023/10/08 20:30:39;;;;;;;20.27;12.50;;;12.90;99.90;;;;;;7299055;32;20111;-56
2023/10/08 20:34:41;;;;;;;34.00;16.15;;;13.00;99.90;;;;;;7300659;32;20446;-58
2023/10/08 20:38:43;;;;;;;42.30;19.48;;;13.30;99.90;;;;;;7300380;32;20443;-56
2023/10/08 20:42:52;;;;;;;46.75;21.85;;;13.70;99.90;;;;;;7299364;32;20116;-56
2023/10/08 20:46:55;;;;;;;40.90;20.85;;;14.10;99.90;;;;;;7302160;32;20112;-57
2023/10/08 20:50:57;;;;;;;39.65;20.10;;;14.20;99.90;;;;;;7301995;32;20224;-58
2023/10/08 20:54:59;;;;;;;37.25;19.27;;;14.30;99.90;;;;;;7299392;32;20178;-57
2023/10/08 20:59:01;;;;;;;33.13;18.25;;;14.40;99.90;;;;;;7301181;32;20765;-58
2023/10/08 21:03:04;;;;;;;36.35;19.08;;;14.30;99.90;;;;;;7295574;32;20564;-56
2023/10/08 21:07:07;;;;;;;26.00;14.87;;;14.30;99.90;;;;;;7298442;32;20224;-58
2023/10/08 21:11:13;;;;;;;29.08;15.02;;;14.00;99.90;;;;;;7301257;32;20178;-56
2023/10/08 21:15:21;;;;;;;28.48;15.52;;;14.00;99.90;;;;;;7295315;32;20211;-58
2023/10/08 21:19:25;;;;;;;28.60;15.43;;;13.90;99.90;;;;;;7301185;32;20506;-56
2023/10/08 21:23:27;;;;;;;25.58;15.95;;;14.00;99.90;;;;;;7300417;32;20104;-57
2023/10/08 21:27:29;;;;;;;27.00;15.65;;;14.00;99.90;;;;;;7295945;32;20233;-56
2023/10/08 21:31:31;;;;;;;26.60;15.88;;;14.00;99.90;;;;;;7300867;32;20471;-57
2023/10/08 21:35:35;;;;;;;29.35;16.15;;;14.00;99.90;;;;;;7298289;32;20562;-57
2023/10/08 21:39:37;;;;;;;27.20;14.80;;;13.90;99.90;;;;;;7302488;32;20100;-58
2023/10/08 21:43:38;;;;;;;30.73;15.10;;;13.90;99.90;;;;;;7297835;32;20170;-56
2023/10/08 21:47:42;;;;;;;28.25;15.15;;;13.80;99.90;;;;;;7301064;32;20099;-57
2023/10/08 21:51:43;;;;;;;25.52;14.32;;;13.80;99.90;;;;;;7303841;32;20514;-57
2023/10/08 21:55:45;;;;;;;29.65;15.32;;;13.80;99.90;;;;;;7302132;32;20560;-57
2023/10/08 21:59:48;;;;;;;34.20;17.40;;;13.80;99.90;;;;;;7300031;32;20247;-57